»·PEaware :: N752X khio-s21

N752X :: khio-s21

FLIGHT INFORMATION

Flight Status: Arrived
Operator: Privately registered:
United States
More flights under this callsign
Pilot: Ernest M. (83)
Aircraft: CESSNA 206 STATIONAIR
(C206)
More flights by this aircraft type
Origin: khio Portland-Hillsboro
United States
Destination: s21 Sunriver
United States
More flights between these airports :: More routes between these airports
Route: ubg glara jjett herbs dsd
File this flight plan on PilotEdge
Remarks:
Altitude:
(Current/Filed)
9,000ft
Speed:
(Current/Filed)
135kts
Departed: 06-Jan-17 07:14 PM
Arrived: 06-Jan-17 08:23 PM
Distance/Time
Traveled:
726nm/1:08
Distance/Time
To Go:
Arrived

Flight Plot

Page will automatically refresh every two minutes.

Flight plan parsing failed; only flown route is shown


Map Options




Map Legend


Flown Route
Filed Route
Departure Airport
Arrival Airport
Navaid (VOR, NDB)
Fix

Horizontal Profiles

Position Reports

Time Latitude Longitude Heading Altitude Ground
Speed
06-Jan-17 18:49 45.533390 -122.945066 0 197ft 0kts
06-Jan-17 18:50 45.533390 -122.945066 0 197ft 0kts
06-Jan-17 18:51 45.533390 -122.945066 0 197ft 0kts
06-Jan-17 18:52 45.533390 -122.945066 0 197ft 0kts
06-Jan-17 18:53 45.533390 -122.945066 0 197ft 0kts
06-Jan-17 18:54 45.533390 -122.945066 0 197ft 0kts
06-Jan-17 18:55 45.533390 -122.945066 0 197ft 0kts
06-Jan-17 18:56 45.533390 -122.945066 0 197ft 0kts
06-Jan-17 18:57 45.533390 -122.945066 0 197ft 0kts
06-Jan-17 18:58 45.533390 -122.945066 0 197ft 0kts
06-Jan-17 18:59 45.533390 -122.945066 0 197ft 0kts
06-Jan-17 19:00 45.533390 -122.945066 0 197ft 0kts
06-Jan-17 19:01 45.533390 -122.945066 0 197ft 0kts
06-Jan-17 19:02 45.533390 -122.945066 0 197ft 0kts
06-Jan-17 19:03 45.533390 -122.945066 0 197ft 0kts
06-Jan-17 19:04 45.533396 -122.945065 1 197ft 0kts
06-Jan-17 19:05 45.533566 -122.945104 345 197ft 0kts
06-Jan-17 19:06 45.533566 -122.945104 345 197ft 0kts
06-Jan-17 19:07 45.533909 -122.946256 262 200ft 8kts
06-Jan-17 19:08 45.534494 -122.946398 56 200ft 11kts
06-Jan-17 19:09 45.534701 -122.945046 71 197ft 0kts
06-Jan-17 19:10 45.534701 -122.945046 71 197ft 0kts
06-Jan-17 19:11 45.534701 -122.945046 71 197ft 0kts
06-Jan-17 19:12 45.534701 -122.945046 71 197ft 0kts
06-Jan-17 19:13 45.534701 -122.945046 71 197ft 0kts
06-Jan-17 19:14 45.541181 -122.950663 323 256ft 89kts
06-Jan-17 19:15 45.541322 -122.974389 179 1320ft 88kts
06-Jan-17 19:16 45.517196 -122.974534 177 2305ft 92kts
06-Jan-17 19:17 45.490549 -122.974497 182 3266ft 97kts
06-Jan-17 19:18 45.463802 -122.979640 182 4256ft 97kts
06-Jan-17 19:19 45.436781 -122.974722 172 5196ft 100kts
06-Jan-17 19:20 45.406589 -122.972602 184 6101ft 101kts
06-Jan-17 19:21 45.382854 -122.974130 189 7166ft 74kts
06-Jan-17 19:22 45.352557 -122.967752 124 7195ft 153kts
06-Jan-17 19:23 45.340420 -122.913099 105 8215ft 92kts
06-Jan-17 19:24 45.333701 -122.878288 106 8972ft 103kts
06-Jan-17 19:25 45.323071 -122.825797 107 8992ft 161kts
06-Jan-17 19:26 45.311059 -122.766395 107 9057ft 152kts
06-Jan-17 19:27 45.299459 -122.708947 107 9050ft 151kts
06-Jan-17 19:28 45.287723 -122.651068 107 8991ft 156kts
06-Jan-17 19:29 45.274205 -122.592707 118 8993ft 156kts
06-Jan-17 19:30 45.254499 -122.537547 118 8996ft 158kts
06-Jan-17 19:31 45.234369 -122.481478 118 8998ft 160kts
06-Jan-17 19:32 45.214093 -122.425109 118 9000ft 161kts
06-Jan-17 19:33 45.193749 -122.368658 118 9000ft 161kts
06-Jan-17 19:34 45.173894 -122.313283 122 9000ft 146kts
06-Jan-17 19:35 45.156056 -122.264219 122 9002ft 137kts
06-Jan-17 19:36 45.138678 -122.216406 123 9006ft 136kts
06-Jan-17 19:37 45.121620 -122.169357 123 9016ft 133kts
06-Jan-17 19:38 45.104562 -122.122547 123 9019ft 134kts
06-Jan-17 19:39 45.087486 -122.075714 124 9019ft 134kts
06-Jan-17 19:40 45.070363 -122.028857 123 9018ft 134kts
06-Jan-17 19:41 45.053104 -121.981616 124 8981ft 135kts
06-Jan-17 19:42 45.035832 -121.934438 124 8982ft 134kts
06-Jan-17 19:43 45.018711 -121.887640 124 9001ft 135kts
06-Jan-17 19:44 45.001562 -121.840352 124 9039ft 137kts
06-Jan-17 19:45 44.983819 -121.792052 124 9077ft 140kts
06-Jan-17 19:46 44.965561 -121.742550 124 9117ft 143kts
06-Jan-17 19:47 44.946986 -121.692317 123 9142ft 146kts
06-Jan-17 19:48 44.915246 -121.660969 156 9112ft 142kts
06-Jan-17 19:49 44.880328 -121.633718 156 9058ft 145kts
06-Jan-17 19:50 44.844726 -121.606225 156 9003ft 147kts
06-Jan-17 19:51 44.808645 -121.578470 156 8948ft 149kts
06-Jan-17 19:52 44.772235 -121.550491 155 8926ft 149kts
06-Jan-17 19:53 44.735943 -121.522639 155 8926ft 148kts
06-Jan-17 19:54 44.699721 -121.494897 155 8926ft 148kts
06-Jan-17 19:55 44.663369 -121.467101 155 8926ft 148kts
06-Jan-17 19:56 44.627135 -121.439448 156 8926ft 148kts
06-Jan-17 19:57 44.590724 -121.411698 156 8926ft 149kts
06-Jan-17 19:58 44.554449 -121.384082 156 8927ft 149kts
06-Jan-17 19:59 44.518106 -121.356453 156 8927ft 149kts
06-Jan-17 20:00 44.481788 -121.328881 156 8927ft 149kts
06-Jan-17 20:01 44.445530 -121.301390 156 8927ft 149kts
06-Jan-17 20:02 44.408127 -121.283297 188 8927ft 141kts
06-Jan-17 20:03 44.369122 -121.287902 190 8927ft 141kts
06-Jan-17 20:04 44.330192 -121.293002 190 8927ft 141kts
06-Jan-17 20:05 44.291113 -121.298239 190 8925ft 142kts
06-Jan-17 20:06 44.251726 -121.304197 192 8924ft 139kts
06-Jan-17 20:07 44.216151 -121.306105 190 8915ft 130kts
06-Jan-17 20:08 44.184415 -121.329677 198 8920ft 129kts
06-Jan-17 20:09 44.147700 -121.345479 195 8427ft 145kts
06-Jan-17 20:10 44.108072 -121.361395 195 7565ft 155kts
06-Jan-17 20:11 44.068278 -121.377195 194 6268ft 147kts
06-Jan-17 20:12 44.033052 -121.391157 193 5914ft 114kts
06-Jan-17 20:13 44.004757 -121.402336 192 5916ft 100kts
06-Jan-17 20:14 43.978451 -121.412725 192 5917ft 97kts
06-Jan-17 20:15 43.952669 -121.422917 192 5917ft 95kts
06-Jan-17 20:16 43.923249 -121.434538 193 5422ft 122kts
06-Jan-17 20:17 43.900433 -121.443817 189 4848ft 63kts
06-Jan-17 20:18 43.883528 -121.450197 190 4266ft 61kts
06-Jan-17 20:19 43.868757 -121.456258 194 4200ft 85kts
06-Jan-17 20:20 43.858719 -121.485946 215 5013ft 103kts
06-Jan-17 20:21 43.848858 -121.469776 54 4823ft 79kts
06-Jan-17 20:22 43.867098 -121.456787 14 4282ft 76kts
06-Jan-17 20:23 43.879571 -121.451568 258 4160ft 0kts
06-Jan-17 20:24 43.879571 -121.451568 258 4160ft 0kts
06-Jan-17 20:25 43.879571 -121.451568 258 4160ft 0kts
06-Jan-17 20:26 43.611953 -116.581578 122 3502ft 108kts
06-Jan-17 20:27 43.593358 -116.546340 125 3041ft 84kts
06-Jan-17 20:28 43.582249 -116.524929 121 2535ft 53kts
06-Jan-17 20:29 43.580960 -116.522067 109 2535ft 0kts
06-Jan-17 20:30 43.580960 -116.522067 109 2535ft 0kts
06-Jan-17 20:31 43.580960 -116.522067 109 2535ft 0kts
06-Jan-17 20:32 43.580960 -116.522067 109 2535ft 0kts
06-Jan-17 20:33 43.577434 -116.515590 305 2542ft 0kts
06-Jan-17 20:34 33.928743 -118.466711 83 1285ft 242kts
06-Jan-17 20:35 33.934571 -118.409179 82 223ft 241kts
06-Jan-17 20:36 33.942755 -118.338911 52 1618ft 219kts
06-Jan-17 20:37 33.955106 -118.373070 255 875ft 219kts

Navigation Log

Ident Type
Flight plan parsing failed, navigation log unavailable